Time;durP1;ratioP1;P1;durP2;ratioP2;P2;SDS_P1;SDS_P2;PMS_P1;PMS_P2;Temp;Humidity;BMP_temperature;BMP_pressure;BME280_temperature;BME280_humidity;BME280_pressure;Samples;Min_cycle;Max_cycle;Signal;HPM_P1;HPM_P2
2022/03/26 00:02:50;;;;;;;38.47;12.80;;;;;;;;;;10558054;27;20028;-75
2022/03/26 00:07:54;;;;;;;43.22;12.40;;;;;;;;;;10548710;27;20069;-76
2022/03/26 00:12:59;;;;;;;38.43;12.90;;;;;;;;;;10567544;27;20516;-76
2022/03/26 00:18:02;;;;;;;;;;;;;;;;;;10545554;28;20044;-76
2022/03/26 00:23:05;;;;;;;49.42;14.75;;;;;;;;;;10553683;27;20007;-76
2022/03/26 00:28:09;;;;;;;52.67;15.02;;;;;;;;;;10554803;27;20044;-76
2022/03/26 00:33:12;;;;;;;45.45;14.07;;;;;;;;;;10551274;28;20036;-77
2022/03/26 00:38:15;;;;;;;44.70;15.30;;;;;;;;;;10553195;28;20046;-77
2022/03/26 00:43:21;;;;;;;37.20;13.55;;;;;;;;;;10556401;28;20384;-76
2022/03/26 00:48:24;;;;;;;39.25;12.65;;;;;;;;;;10553747;28;20089;-76
2022/03/26 00:53:27;;;;;;;45.83;13.50;;;;;;;;;;10549593;28;20039;-76
2022/03/26 00:58:34;;;;;;;34.42;11.55;;;;;;;;;;10549287;28;20055;-76
2022/03/26 01:03:36;;;;;;;32.33;11.05;;;;;;;;;;10554832;28;20119;-76
2022/03/26 01:08:40;;;;;;;38.42;12.88;;;;;;;;;;10558415;28;20043;-76
2022/03/26 01:13:44;;;;;;;40.20;12.43;;;;;;;;;;10572528;28;20036;-75
2022/03/26 01:18:49;;;;;;;43.78;12.63;;;;;;;;;;10560695;28;20063;-76
2022/03/26 01:23:52;;;;;;;37.85;13.13;;;;;;;;;;10569277;28;20024;-76
2022/03/26 01:28:56;;;;;;;38.67;12.27;;;;;;;;;;10532245;28;20147;-76
2022/03/26 01:34:00;;;;;;;36.05;12.68;;;;;;;;;;10554325;28;20463;-76
2022/03/26 01:39:03;;;;;;;41.95;13.50;;;;;;;;;;10556769;27;20061;-76
2022/03/26 01:44:11;;;;;;;42.03;13.52;;;;;;;;;;10560370;27;20039;-76
2022/03/26 01:49:14;;;;;;;43.53;13.88;;;;;;;;;;10556470;27;20042;-76
2022/03/26 01:54:18;;;;;;;40.40;13.63;;;;;;;;;;10564096;27;20061;-75
2022/03/26 01:59:22;;;;;;;42.93;13.53;;;;;;;;;;10545837;27;20040;-75
2022/03/26 02:04:26;;;;;;;36.10;12.00;;;;;;;;;;10556337;27;20113;-75
2022/03/26 02:09:33;;;;;;;;;;;;;;;;;;10569863;27;20891;-74
2022/03/26 02:14:37;;;;;;;42.80;13.20;;;;;;;;;;10555649;27;19963;-75
2022/03/26 02:19:40;;;;;;;38.47;12.93;;;;;;;;;;10564802;27;20052;-74
2022/03/26 02:24:44;;;;;;;37.70;12.93;;;;;;;;;;10565364;27;20036;-75
2022/03/26 02:29:48;;;;;;;44.35;13.85;;;;;;;;;;10551310;27;20119;-75
2022/03/26 02:34:51;;;;;;;37.53;13.38;;;;;;;;;;10567319;27;20040;-75
2022/03/26 02:40:07;;;;;;;38.60;12.53;;;;;;;;;;10551023;27;20060;-74
2022/03/26 02:45:11;;;;;;;39.28;12.48;;;;;;;;;;10580095;27;20136;-75
2022/03/26 02:50:13;;;;;;;39.58;12.30;;;;;;;;;;10552286;27;20055;-76
2022/03/26 02:55:18;;;;;;;38.78;12.65;;;;;;;;;;10562376;27;20114;-76
2022/03/26 03:00:21;;;;;;;39.88;12.65;;;;;;;;;;10557555;27;20590;-75
2022/03/26 03:05:24;;;;;;;41.00;13.03;;;;;;;;;;10570241;27;20073;-74
2022/03/26 03:10:29;;;;;;;40.63;12.13;;;;;;;;;;10559631;27;20393;-74
2022/03/26 03:15:32;;;;;;;45.40;13.98;;;;;;;;;;10556792;27;20039;-75
2022/03/26 03:20:34;;;;;;;39.50;13.63;;;;;;;;;;10567699;27;20217;-75
2022/03/26 03:25:39;;;;;;;39.30;12.82;;;;;;;;;;10567241;27;20039;-75
2022/03/26 03:30:42;;;;;;;41.50;13.33;;;;;;;;;;10559208;27;20036;-75
2022/03/26 03:35:46;;;;;;;39.28;12.40;;;;;;;;;;10554217;27;20044;-75
2022/03/26 03:40:51;;;;;;;38.60;12.80;;;;;;;;;;10549896;27;20039;-75
2022/03/26 03:45:54;;;;;;;40.85;13.10;;;;;;;;;;10555400;27;20154;-75
2022/03/26 03:50:57;;;;;;;42.63;14.27;;;;;;;;;;10551290;27;20036;-74
2022/03/26 03:56:01;;;;;;;40.35;12.90;;;;;;;;;;10559164;27;20471;-74
2022/03/26 04:01:04;;;;;;;44.72;13.18;;;;;;;;;;10551772;27;20031;-75
2022/03/26 04:06:07;;;;;;;38.03;12.53;;;;;;;;;;10563074;27;20049;-77
2022/03/26 04:11:11;;;;;;;40.60;12.30;;;;;;;;;;10568651;27;20322;-76
2022/03/26 04:16:15;;;;;;;42.70;13.07;;;;;;;;;;10577163;27;20095;-76
2022/03/26 04:21:18;;;;;;;46.90;13.90;;;;;;;;;;10573720;27;20053;-76
2022/03/26 04:26:24;;;;;;;41.38;12.38;;;;;;;;;;10558412;27;20467;-76
2022/03/26 04:31:27;;;;;;;37.47;11.80;;;;;;;;;;10553516;27;20035;-74
2022/03/26 04:36:30;;;;;;;38.10;13.07;;;;;;;;;;10559835;28;20054;-77
2022/03/26 04:41:34;;;;;;;43.23;13.67;;;;;;;;;;10553901;28;20565;-75
2022/03/26 04:46:38;;;;;;;;;;;;;;;;;;10561997;28;20055;-74
2022/03/26 04:51:40;;;;;;;44.20;13.43;;;;;;;;;;10555167;28;20245;-74
2022/03/26 04:56:45;;;;;;;39.27;12.67;;;;;;;;;;10554351;28;20066;-72
2022/03/26 05:01:48;;;;;;;39.63;12.77;;;;;;;;;;10554600;28;20556;-74
2022/03/26 05:06:52;;;;;;;41.85;14.25;;;;;;;;;;10554494;28;20423;-72
2022/03/26 05:11:57;;;;;;;40.37;13.13;;;;;;;;;;10574171;27;20032;-75
2022/03/26 05:17:00;;;;;;;42.03;12.93;;;;;;;;;;10557483;27;20051;-75
2022/03/26 05:22:04;;;;;;;43.27;12.97;;;;;;;;;;10567625;27;20055;-75
2022/03/26 05:27:08;;;;;;;46.83;13.15;;;;;;;;;;10566211;27;20071;-75
2022/03/26 05:32:11;;;;;;;;;;;;;;;;;;10554803;27;20109;-76
2022/03/26 05:37:15;;;;;;;43.50;12.93;;;;;;;;;;10565639;27;20007;-75
2022/03/26 05:42:19;;;;;;;43.43;13.40;;;;;;;;;;10576404;27;20305;-75
2022/03/26 05:47:23;;;;;;;42.67;12.90;;;;;;;;;;10564676;27;20720;-73
2022/03/26 05:52:27;;;;;;;40.70;12.77;;;;;;;;;;10568593;27;20039;-77
2022/03/26 05:57:33;;;;;;;48.40;15.13;;;;;;;;;;10553320;27;20157;-75
2022/03/26 06:02:36;;;;;;;40.33;12.97;;;;;;;;;;10570026;27;20035;-74
2022/03/26 06:07:40;;;;;;;41.05;13.50;;;;;;;;;;10557704;27;20032;-74
2022/03/26 06:12:45;;;;;;;36.15;13.25;;;;;;;;;;10565460;27;20506;-75
2022/03/26 06:17:48;;;;;;;38.97;13.55;;;;;;;;;;10557520;27;20031;-75
2022/03/26 06:22:51;;;;;;;42.80;13.65;;;;;;;;;;10562543;27;20421;-75
2022/03/26 06:27:55;;;;;;;38.63;13.20;;;;;;;;;;10561585;27;20035;-74
2022/03/26 06:32:58;;;;;;;45.88;15.20;;;;;;;;;;10565661;27;20047;-75
2022/03/26 06:38:02;;;;;;;40.30;13.73;;;;;;;;;;10563744;27;20125;-75
2022/03/26 06:43:06;;;;;;;43.72;14.20;;;;;;;;;;10572809;27;20039;-75
2022/03/26 06:48:10;;;;;;;42.13;15.05;;;;;;;;;;10554299;27;20043;-75
2022/03/26 06:53:13;;;;;;;;;;;;;;;;;;10560106;27;20034;-72
2022/03/26 06:58:17;;;;;;;38.05;14.43;;;;;;;;;;10619465;27;19919;-74
2022/03/26 07:03:21;;;;;;;42.13;16.27;;;;;;;;;;10625615;27;20027;-73
2022/03/26 07:08:24;;;;;;;40.40;17.42;;;;;;;;;;10626303;27;20040;-74
2022/03/26 07:13:29;;;;;;;42.63;17.80;;;;;;;;;;10590041;27;20044;-74
2022/03/26 07:18:32;;;;;;;43.92;19.30;;;;;;;;;;10552549;27;20062;-74
2022/03/26 07:23:35;;;;;;;44.72;19.10;;;;;;;;;;10571624;27;20039;-75
2022/03/26 07:28:39;;;;;;;42.33;20.83;;;;;;;;;;10552516;27;20143;-75
2022/03/26 07:33:42;;;;;;;46.25;21.63;;;;;;;;;;10557588;27;20039;-75
2022/03/26 07:38:45;;;;;;;40.28;19.67;;;;;;;;;;10558577;27;20051;-75
2022/03/26 07:43:49;;;;;;;42.95;21.15;;;;;;;;;;10559145;27;20095;-77
2022/03/26 07:48:52;;;;;;;41.65;21.25;;;;;;;;;;10537328;27;20032;-75
2022/03/26 07:53:55;;;;;;;43.97;22.98;;;;;;;;;;10538697;27;20035;-77
2022/03/26 07:58:59;;;;;;;36.42;18.25;;;;;;;;;;10547688;27;20055;-77
2022/03/26 08:04:02;;;;;;;40.58;21.45;;;;;;;;;;10568116;27;20039;-76
2022/03/26 08:09:06;;;;;;;45.42;23.38;;;;;;;;;;10552150;27;20126;-77
2022/03/26 08:14:10;;;;;;;38.17;19.75;;;;;;;;;;10561791;27;20566;-77
2022/03/26 08:19:13;;;;;;;40.17;22.98;;;;;;;;;;10552851;27;20039;-76
2022/03/26 08:24:16;;;;;;;42.92;23.30;;;;;;;;;;10557003;27;20081;-77
2022/03/26 08:29:20;;;;;;;34.95;19.52;;;;;;;;;;10563595;27;20161;-76
2022/03/26 08:34:24;;;;;;;40.75;22.10;;;;;;;;;;10578330;27;20054;-76
2022/03/26 08:39:27;;;;;;;36.85;23.35;;;;;;;;;;10564175;28;20040;-76
2022/03/26 08:44:31;;;;;;;38.20;23.98;;;;;;;;;;10571816;28;20036;-76
2022/03/26 08:49:36;;;;;;;42.28;24.48;;;;;;;;;;10561030;27;20067;-76
2022/03/26 08:54:39;;;;;;;42.55;26.55;;;;;;;;;;10548325;27;20035;-77
2022/03/26 08:59:44;;;;;;;41.92;25.42;;;;;;;;;;10552196;27;20500;-76
2022/03/26 09:04:46;;;;;;;40.78;25.52;;;;;;;;;;10563538;27;20025;-76
2022/03/26 09:09:51;;;;;;;39.47;24.98;;;;;;;;;;10555287;27;20360;-76
2022/03/26 09:14:55;;;;;;;46.85;26.13;;;;;;;;;;10578757;27;20043;-76
2022/03/26 09:19:58;;;;;;;38.85;25.60;;;;;;;;;;10569849;27;20445;-77
2022/03/26 09:25:01;;;;;;;39.90;25.40;;;;;;;;;;10562245;27;20056;-76
2022/03/26 09:30:07;;;;;;;39.95;25.20;;;;;;;;;;10560462;27;20047;-76
2022/03/26 09:35:11;;;;;;;37.45;25.58;;;;;;;;;;10570653;27;20063;-76
2022/03/26 09:40:14;;;;;;;40.85;26.55;;;;;;;;;;10555762;27;20036;-76
2022/03/26 09:45:19;;;;;;;38.80;25.98;;;;;;;;;;10554917;27;20055;-76
2022/03/26 09:50:22;;;;;;;40.60;25.67;;;;;;;;;;10565789;27;20040;-78
2022/03/26 09:55:25;;;;;;;41.75;26.58;;;;;;;;;;10555395;27;20067;-78
2022/03/26 10:00:29;;;;;;;41.10;26.30;;;;;;;;;;10574299;27;20040;-76
2022/03/26 10:05:34;;;;;;;46.47;28.88;;;;;;;;;;10592794;27;20036;-77
2022/03/26 10:10:43;;;;;;;38.88;25.48;;;;;;;;;;10574400;27;20164;-77
2022/03/26 10:16:01;;;;;;;36.33;25.08;;;;;;;;;;10561843;27;20666;-77
2022/03/26 10:21:07;;;;;;;42.42;25.60;;;;;;;;;;10554498;27;20135;-77
2022/03/26 10:26:11;;;;;;;51.03;25.90;;;;;;;;;;10567358;27;20063;-78
2022/03/26 10:36:38;;;;;;;45.05;25.58;;;;;;;;;;10547289;27;20066;-78
2022/03/26 10:41:42;;;;;;;41.30;25.17;;;;;;;;;;10559752;27;20046;-79
2022/03/26 10:46:46;;;;;;;41.88;25.30;;;;;;;;;;10550114;27;20043;-78
2022/03/26 10:51:51;;;;;;;37.47;24.48;;;;;;;;;;10557245;27;20043;-78
2022/03/26 10:56:54;;;;;;;41.25;24.98;;;;;;;;;;10551372;27;20035;-78
2022/03/26 11:01:58;;;;;;;38.03;24.75;;;;;;;;;;10571040;27;20541;-78
2022/03/26 11:07:02;;;;;;;38.22;24.83;;;;;;;;;;10569297;27;20027;-79
2022/03/26 11:12:05;;;;;;;40.35;25.23;;;;;;;;;;10572654;27;20043;-79
2022/03/26 11:17:14;;;;;;;38.58;23.05;;;;;;;;;;10549081;27;20422;-79
2022/03/26 11:22:32;;;;;;;43.10;23.75;;;;;;;;;;10563765;27;20622;-78
2022/03/26 11:27:53;;;;;;;35.03;22.95;;;;;;;;;;10549854;27;20047;-78
2022/03/26 11:33:08;;;;;;;37.90;21.73;;;;;;;;;;10574015;27;20057;-80
2022/03/26 11:38:13;;;;;;;35.47;22.15;;;;;;;;;;10577833;27;20054;-79
2022/03/26 11:43:19;;;;;;;34.33;21.23;;;;;;;;;;10567345;27;20048;-80
2022/03/26 11:53:44;;;;;;;;;;;;;;;;;;10571007;27;20032;-78
2022/03/26 11:59:04;;;;;;;40.72;21.98;;;;;;;;;;10555148;27;19919;-79
2022/03/26 12:04:11;;;;;;;37.93;20.63;;;;;;;;;;10567148;27;20077;-78
2022/03/26 12:09:28;;;;;;;32.83;19.77;;;;;;;;;;10554830;27;20126;-79
2022/03/26 12:14:33;;;;;;;35.80;22.33;;;;;;;;;;10560770;27;20422;-79
2022/03/26 12:19:36;;;;;;;48.22;25.45;;;;;;;;;;10563347;27;20043;-79
2022/03/26 12:24:39;;;;;;;46.38;20.40;;;;;;;;;;10565217;27;20401;-80
2022/03/26 12:29:43;;;;;;;55.35;22.02;;;;;;;;;;10568509;27;20040;-81
2022/03/26 12:34:54;;;;;;;46.05;20.08;;;;;;;;;;10577594;28;20097;-78
2022/03/26 12:39:57;;;;;;;30.55;18.58;;;;;;;;;;10588487;27;20036;-79
2022/03/26 12:45:01;;;;;;;36.53;20.58;;;;;;;;;;10577315;28;20039;-79
2022/03/26 12:50:04;;;;;;;36.92;18.80;;;;;;;;;;10555911;28;20035;-79
2022/03/26 12:55:08;;;;;;;32.67;17.35;;;;;;;;;;10557544;28;20061;-79
2022/03/26 13:00:13;;;;;;;32.78;18.85;;;;;;;;;;10565946;28;20063;-79
2022/03/26 13:05:16;;;;;;;39.38;20.08;;;;;;;;;;10566059;28;20669;-79
2022/03/26 13:10:28;;;;;;;39.40;20.95;;;;;;;;;;10564754;28;20048;-79
2022/03/26 13:15:32;;;;;;;37.58;20.20;;;;;;;;;;10567259;28;20092;-79
2022/03/26 13:20:37;;;;;;;34.80;18.00;;;;;;;;;;10558425;28;20048;-79
2022/03/26 13:25:42;;;;;;;40.67;18.50;;;;;;;;;;10556844;28;20039;-79
2022/03/26 13:30:47;;;;;;;35.10;17.50;;;;;;;;;;10556953;28;20110;-80
2022/03/26 13:35:52;;;;;;;32.25;17.17;;;;;;;;;;10570059;27;20169;-79
2022/03/26 13:40:55;;;;;;;54.53;17.90;;;;;;;;;;10569636;27;20036;-79
2022/03/26 13:45:59;;;;;;;34.33;17.17;;;;;;;;;;10581157;27;20044;-78
2022/03/26 13:51:09;;;;;;;32.38;15.73;;;;;;;;;;10581331;27;20080;-79
2022/03/26 13:56:12;;;;;;;29.90;15.73;;;;;;;;;;10567422;27;20043;-79
2022/03/26 14:01:17;;;;;;;26.35;12.45;;;;;;;;;;10567031;27;20042;-78
2022/03/26 14:06:22;;;;;;;29.98;15.32;;;;;;;;;;10569602;27;20032;-78
2022/03/26 14:11:25;;;;;;;29.90;15.38;;;;;;;;;;10554261;27;20089;-78
2022/03/26 14:16:29;;;;;;;29.95;15.32;;;;;;;;;;10570601;27;20039;-78
2022/03/26 14:21:32;;;;;;;71.15;35.83;;;;;;;;;;10579104;27;20035;-79
2022/03/26 14:26:35;;;;;;;28.88;14.88;;;;;;;;;;10578095;27;20032;-78
2022/03/26 14:31:39;;;;;;;30.48;13.73;;;;;;;;;;10564165;27;20356;-79
2022/03/26 14:36:42;;;;;;;42.00;17.10;;;;;;;;;;10567109;27;20062;-79
2022/03/26 14:41:45;;;;;;;26.85;13.23;;;;;;;;;;10557736;27;20415;-79
2022/03/26 14:46:49;;;;;;;26.15;12.98;;;;;;;;;;10579616;27;20360;-77
2022/03/26 14:51:52;;;;;;;33.92;13.48;;;;;;;;;;10566908;27;20416;-80
2022/03/26 14:56:55;;;;;;;30.88;13.07;;;;;;;;;;10558502;27;20028;-78
2022/03/26 15:01:59;;;;;;;30.23;12.85;;;;;;;;;;10553657;27;20578;-79
2022/03/26 15:07:06;;;;;;;44.38;14.60;;;;;;;;;;10561313;27;20027;-78
2022/03/26 15:12:09;;;;;;;30.35;13.32;;;;;;;;;;10566452;27;20047;-78
2022/03/26 15:17:14;;;;;;;26.73;12.70;;;;;;;;;;10556140;27;20047;-79
2022/03/26 15:22:17;;;;;;;29.55;12.88;;;;;;;;;;10567517;27;20600;-79
2022/03/26 15:27:20;;;;;;;33.22;12.90;;;;;;;;;;10558656;27;20093;-78
2022/03/26 15:32:25;;;;;;;38.92;13.10;;;;;;;;;;10551548;27;20044;-81
2022/03/26 15:37:28;;;;;;;39.95;13.07;;;;;;;;;;10564500;27;20093;-81
2022/03/26 15:42:31;;;;;;;29.85;12.57;;;;;;;;;;10550862;27;20107;-79
2022/03/26 15:47:35;;;;;;;27.58;12.00;;;;;;;;;;10564777;27;20031;-80
2022/03/26 15:52:38;;;;;;;53.33;22.45;;;;;;;;;;10577595;27;20044;-77
2022/03/26 15:57:41;;;;;;;38.42;14.77;;;;;;;;;;10552652;27;20027;-80
2022/03/26 16:02:43;;;;;;;;;;;;;;;;;;10555250;27;20063;-79
2022/03/26 16:07:49;;;;;;;25.05;10.88;;;;;;;;;;10542456;28;19920;-79
2022/03/26 16:12:53;;;;;;;39.50;13.32;;;;;;;;;;10564729;27;20047;-80
2022/03/26 16:17:59;;;;;;;43.83;14.85;;;;;;;;;;10555154;27;20042;-81
2022/03/26 16:23:05;;;;;;;40.22;12.68;;;;;;;;;;10577675;27;20536;-80
2022/03/26 16:28:09;;;;;;;41.33;12.77;;;;;;;;;;10558463;27;20087;-80
2022/03/26 16:33:11;;;;;;;29.33;11.88;;;;;;;;;;10564518;28;20049;-79
2022/03/26 16:38:16;;;;;;;38.40;12.50;;;;;;;;;;10560162;28;20233;-80
2022/03/26 16:43:22;;;;;;;32.25;11.02;;;;;;;;;;10564664;28;20442;-79
2022/03/26 16:48:25;;;;;;;56.88;18.17;;;;;;;;;;10561452;28;20096;-79
2022/03/26 16:53:31;;;;;;;28.55;10.50;;;;;;;;;;10567895;28;20126;-79
2022/03/26 16:58:35;;;;;;;27.70;10.48;;;;;;;;;;10561346;28;20027;-79
2022/03/26 17:03:39;;;;;;;26.17;11.85;;;;;;;;;;10582624;28;20119;-78
2022/03/26 17:08:44;;;;;;;31.17;11.70;;;;;;;;;;10569787;27;20036;-80
2022/03/26 17:13:47;;;;;;;28.08;11.65;;;;;;;;;;10556694;27;20066;-79
2022/03/26 17:18:50;;;;;;;31.00;12.60;;;;;;;;;;10545560;27;20036;-79
2022/03/26 17:23:54;;;;;;;32.75;11.88;;;;;;;;;;10558418;27;20038;-79
2022/03/26 17:28:57;;;;;;;35.92;11.85;;;;;;;;;;10558246;27;20038;-79
2022/03/26 17:34:00;;;;;;;30.97;11.53;;;;;;;;;;10574906;27;20379;-79
2022/03/26 17:39:05;;;;;;;28.98;11.82;;;;;;;;;;10571786;27;20305;-79
2022/03/26 17:44:08;;;;;;;39.20;12.32;;;;;;;;;;10566616;27;20074;-79
2022/03/26 17:49:11;;;;;;;33.67;11.68;;;;;;;;;;10563999;27;20048;-79
2022/03/26 17:54:16;;;;;;;34.95;12.25;;;;;;;;;;10566097;27;20078;-80
2022/03/26 17:59:19;;;;;;;34.05;11.13;;;;;;;;;;10582551;27;20044;-79
2022/03/26 18:04:25;;;;;;;27.48;10.95;;;;;;;;;;10569377;27;20039;-80
2022/03/26 18:09:30;;;;;;;36.60;11.40;;;;;;;;;;10525080;28;20036;-80
2022/03/26 18:14:33;;;;;;;32.80;10.73;;;;;;;;;;10509624;28;20500;-79
2022/03/26 18:19:36;;;;;;;31.08;11.05;;;;;;;;;;10524817;28;20087;-79
2022/03/26 18:24:40;;;;;;;36.60;11.95;;;;;;;;;;10502672;28;20158;-79
2022/03/26 18:29:43;;;;;;;33.35;11.18;;;;;;;;;;10525297;28;20048;-79
2022/03/26 18:34:46;;;;;;;30.47;10.90;;;;;;;;;;10521589;28;20090;-79
2022/03/26 18:39:50;;;;;;;30.00;11.43;;;;;;;;;;10535179;28;20048;-79
2022/03/26 18:44:53;;;;;;;28.35;10.27;;;;;;;;;;10513470;28;20036;-78
2022/03/26 18:49:57;;;;;;;28.33;10.52;;;;;;;;;;10530276;28;20048;-77
2022/03/26 18:55:01;;;;;;;34.00;11.17;;;;;;;;;;10544151;28;20112;-78
2022/03/26 19:00:05;;;;;;;28.15;10.40;;;;;;;;;;10543700;28;20726;-79
2022/03/26 19:05:09;;;;;;;31.73;10.43;;;;;;;;;;10510371;28;20036;-80
2022/03/26 19:10:13;;;;;;;27.63;10.15;;;;;;;;;;10548678;27;20499;-78
2022/03/26 19:15:16;;;;;;;35.40;11.50;;;;;;;;;;10560903;27;20044;-79
2022/03/26 19:20:19;;;;;;;31.95;10.55;;;;;;;;;;10549909;27;20500;-76
2022/03/26 19:25:24;;;;;;;33.37;10.87;;;;;;;;;;10544321;27;20466;-76
2022/03/26 19:30:27;;;;;;;34.28;11.60;;;;;;;;;;10551016;27;20109;-78
2022/03/26 19:35:31;;;;;;;33.97;11.40;;;;;;;;;;10564398;27;20044;-80
2022/03/26 19:40:35;;;;;;;28.48;10.48;;;;;;;;;;10562684;27;20031;-78
2022/03/26 19:45:38;;;;;;;35.70;11.02;;;;;;;;;;10556137;27;20085;-78
2022/03/26 19:50:41;;;;;;;30.27;10.90;;;;;;;;;;10575375;27;20042;-77
2022/03/26 19:55:46;;;;;;;35.43;11.57;;;;;;;;;;10561049;27;20039;-77
2022/03/26 20:00:51;;;;;;;29.98;9.65;;;;;;;;;;10572161;27;20031;-77
2022/03/26 20:05:54;;;;;;;31.37;10.23;;;;;;;;;;10566240;27;20552;-77
2022/03/26 20:11:03;;;;;;;35.15;10.10;;;;;;;;;;10560251;27;20663;-78
2022/03/26 20:21:51;;;;;;;32.35;10.98;;;;;;;;;;10572386;27;20047;-78
2022/03/26 20:27:03;;;;;;;34.03;11.25;;;;;;;;;;10560583;27;20091;-76
2022/03/26 20:32:06;;;;;;;36.85;11.27;;;;;;;;;;10574221;27;20044;-76
2022/03/26 20:37:12;;;;;;;36.92;11.00;;;;;;;;;;10554106;28;20483;-78
2022/03/26 20:42:18;;;;;;;29.65;10.15;;;;;;;;;;10557479;28;20048;-77
2022/03/26 20:47:24;;;;;;;30.13;10.88;;;;;;;;;;10559184;28;20044;-78
2022/03/26 20:52:28;;;;;;;25.90;10.25;;;;;;;;;;10560225;28;20048;-78
2022/03/26 20:57:32;;;;;;;28.48;10.38;;;;;;;;;;10564421;28;20116;-78
2022/03/26 21:02:37;;;;;;;32.15;9.77;;;;;;;;;;10578311;28;20108;-77
2022/03/26 21:07:40;;;;;;;33.28;10.23;;;;;;;;;;10572219;28;20066;-78
2022/03/26 21:12:45;;;;;;;28.10;10.37;;;;;;;;;;10571238;27;20065;-76
2022/03/26 21:17:48;;;;;;;32.63;11.05;;;;;;;;;;10578183;28;20032;-78
2022/03/26 21:22:55;;;;;;;29.07;10.10;;;;;;;;;;10571787;28;20032;-77
2022/03/26 21:28:00;;;;;;;30.33;9.73;;;;;;;;;;10592823;28;20053;-76
2022/03/26 21:33:02;;;;;;;34.95;11.60;;;;;;;;;;10617556;28;20026;-77
2022/03/26 21:38:06;;;;;;;34.27;11.27;;;;;;;;;;10613933;28;20035;-77
2022/03/26 21:43:10;;;;;;;33.08;10.07;;;;;;;;;;10628562;28;20078;-77
2022/03/26 21:48:14;;;;;;;30.98;10.57;;;;;;;;;;10593391;28;20196;-77
2022/03/26 21:53:17;;;;;;;32.90;11.00;;;;;;;;;;10595063;27;20020;-77
2022/03/26 21:58:21;;;;;;;32.90;11.52;;;;;;;;;;10598738;27;20074;-70
2022/03/26 22:03:24;;;;;;;36.78;11.85;;;;;;;;;;10590710;27;20050;-71
2022/03/26 22:08:27;;;;;;;33.42;11.00;;;;;;;;;;10587601;27;20042;-71
2022/03/26 22:13:32;;;;;;;34.03;10.35;;;;;;;;;;10586291;27;20099;-71
2022/03/26 22:18:35;;;;;;;33.30;10.90;;;;;;;;;;10568807;27;20115;-71
2022/03/26 22:23:38;;;;;;;33.22;10.75;;;;;;;;;;10571759;27;20610;-70
2022/03/26 22:28:42;;;;;;;34.53;11.52;;;;;;;;;;10573834;27;20050;-70
2022/03/26 22:33:45;;;;;;;36.83;10.88;;;;;;;;;;10566291;28;20035;-71
2022/03/26 22:38:49;;;;;;;;;;;;;;;;;;10575128;27;20032;-71
2022/03/26 22:43:53;;;;;;;34.53;10.63;;;;;;;;;;10588814;27;19986;-77
2022/03/26 22:48:56;;;;;;;34.22;11.13;;;;;;;;;;10609784;27;20065;-77
2022/03/26 22:53:59;;;;;;;37.53;11.32;;;;;;;;;;10602935;27;20040;-77
2022/03/26 22:59:04;;;;;;;33.75;11.05;;;;;;;;;;10608487;27;20075;-76
2022/03/26 23:04:07;;;;;;;31.67;11.13;;;;;;;;;;10608833;27;20238;-77
2022/03/26 23:09:10;;;;;;;34.53;11.43;;;;;;;;;;10615668;27;20026;-78
2022/03/26 23:14:15;;;;;;;45.77;11.27;;;;;;;;;;10622951;27;20039;-77
2022/03/26 23:19:18;;;;;;;37.97;10.90;;;;;;;;;;10609103;27;20032;-76
2022/03/26 23:24:21;;;;;;;44.92;12.25;;;;;;;;;;10604226;27;20051;-76
2022/03/26 23:29:27;;;;;;;36.22;11.30;;;;;;;;;;10600872;27;20070;-76
2022/03/26 23:34:29;;;;;;;39.15;11.40;;;;;;;;;;10594594;27;20037;-77
2022/03/26 23:39:32;;;;;;;44.95;13.18;;;;;;;;;;10577873;27;20063;-77
2022/03/26 23:44:37;;;;;;;34.33;10.73;;;;;;;;;;10568651;27;20039;-77
2022/03/26 23:49:41;;;;;;;37.05;11.65;;;;;;;;;;10569381;27;20031;-76
2022/03/26 23:54:47;;;;;;;36.53;11.23;;;;;;;;;;10551656;27;20129;-77
2022/03/26 23:59:51;;;;;;;32.75;10.43;;;;;;;;;;10548120;27;20055;-76
